Terminal Aerodrome Forecast
Issued by NWS

Home | Current Version | Previous Version | Text Only | Print | Product List | Glossary On
Versions: 1 2 3 4 5 6 7 8 9 10 11 12 13 14 15 16 17 18 19 20 21 22
000
FTUS42 KRAH 241731
TAFINT
TAF
KINT 241731Z 2418/2518 20006G12KT P6SM BKN080
     FM242300 21006KT P6SM BKN150
     FM251000 21008G16KT P6SM BKN020
      TEMPO 2510/2513 BKN012 OVC020
     FM251300 22011G19KT P6SM BKN020
     FM251600 22011G19KT P6SM BKN045=

USA.gov is the U.S. government's official web portal to all federal, state and local government web resources and services.